Time;durP1;ratioP1;P1;durP2;ratioP2;P2;SDS_P1;SDS_P2;PMS_P1;PMS_P2;Temp;Humidity;BMP_temperature;BMP_pressure;BME280_temperature;BME280_humidity;BME280_pressure;Samples;Min_cycle;Max_cycle;Signal;HPM_P1;HPM_P2
2023/06/09 00:00:10;;;;;;;11.15;3.95;;;;;;;12.32;67.48;100360.75;4998148;28;20116;-49
2023/06/09 00:02:38;;;;;;;8.43;4.10;;;;;;;12.32;66.30;100359.03;5003922;28;20057;-47
2023/06/09 00:05:06;;;;;;;12.63;4.97;;;;;;;12.31;67.12;100361.63;5001670;28;20133;-44
2023/06/09 00:07:36;;;;;;;7.82;4.68;;;;;;;12.31;67.10;100365.13;4997777;28;20056;-50
2023/06/09 00:10:04;;;;;;;8.77;4.47;;;;;;;12.32;67.50;100361.63;4999913;28;20097;-53
2023/06/09 00:12:30;;;;;;;7.90;4.78;;;;;;;12.29;67.30;100369.44;4997555;28;20085;-51
2023/06/09 00:14:58;;;;;;;7.75;4.72;;;;;;;12.27;66.92;100368.59;4994779;28;20054;-45
2023/06/09 00:17:25;;;;;;;11.63;6.03;;;;;;;12.28;67.53;100359.94;5000774;28;20042;-53
2023/06/09 00:19:54;;;;;;;8.00;3.97;;;;;;;12.29;67.78;100350.41;5002506;28;20054;-48
2023/06/09 00:22:21;;;;;;;8.98;3.45;;;;;;;12.26;66.50;100351.25;5001780;28;20085;-48
2023/06/09 00:24:48;;;;;;;9.93;4.00;;;;;;;12.27;66.46;100352.13;5001179;28;20053;-46
2023/06/09 00:27:15;;;;;;;9.30;4.00;;;;;;;12.26;66.66;100351.25;5001848;28;20041;-46
2023/06/09 00:29:42;;;;;;;9.30;3.88;;;;;;;12.27;66.35;100352.13;4989497;28;20093;-47
2023/06/09 00:32:11;;;;;;;7.85;3.75;;;;;;;12.27;67.81;100352.13;4995450;28;20092;-47
2023/06/09 00:34:38;;;;;;;8.18;4.20;;;;;;;12.25;67.83;100353.88;4997114;28;20100;-45
2023/06/09 00:37:05;;;;;;;9.52;5.00;;;;;;;12.25;66.58;100356.47;4995119;28;20052;-45
2023/06/09 00:39:32;;;;;;;8.57;4.13;;;;;;;12.22;67.75;100344.38;5003656;28;20058;-45
2023/06/09 00:41:58;;;;;;;8.93;3.72;;;;;;;12.22;66.85;100346.97;4999231;28;20054;-50
2023/06/09 00:44:25;;;;;;;9.23;4.05;;;;;;;12.17;67.03;100340.94;4998226;28;20057;-47
2023/06/09 00:46:53;;;;;;;8.48;4.25;;;;;;;12.15;68.24;100338.34;4997151;28;20045;-47
2023/06/09 00:49:20;;;;;;;10.40;4.07;;;;;;;12.14;68.13;100335.75;5001328;28;20046;-49
2023/06/09 00:51:47;;;;;;;7.55;3.70;;;;;;;12.12;68.11;100340.09;5002683;28;20049;-47
2023/06/09 00:54:17;;;;;;;8.85;4.57;;;;;;;12.07;67.47;100343.59;5004644;28;20070;-43
2023/06/09 00:56:45;;;;;;;9.57;4.22;;;;;;;12.07;68.42;100338.41;5000077;28;20058;-50
2023/06/09 00:59:15;;;;;;;6.93;3.95;;;;;;;12.07;67.44;100346.19;5003898;28;20047;-49
2023/06/09 01:01:44;;;;;;;7.18;4.03;;;;;;;12.05;69.00;100341.81;5002921;28;20050;-49
2023/06/09 01:04:14;;;;;;;10.32;4.30;;;;;;;12.03;68.50;100341.81;5003184;28;20055;-47
2023/06/09 01:09:35;;;;;;;8.90;2.15;;;;;;;11.98;68.27;100335.78;5113087;27;20742;-54
2023/06/09 01:17:28;;;;;;;4.43;1.95;;;;;;;11.94;69.15;100342.72;5057892;27;20404;-54
2023/06/09 01:19:58;;;;;;;8.25;1.83;;;;;;;11.99;68.43;100342.69;5035189;28;20045;-45
2023/06/09 01:25:37;;;;;;;5.93;2.33;;;;;;;11.95;69.66;100340.97;5013118;27;20921;-43
2023/06/09 01:28:16;;;;;;;10.90;3.22;;;;;;;11.96;68.89;100338.38;4991871;28;20049;-42
2023/06/09 01:30:46;;;;;;;6.65;2.65;;;;;;;11.98;69.53;100340.97;4995833;28;20125;-49
2023/06/09 01:33:17;;;;;;;8.73;2.85;;;;;;;12.00;68.53;100339.25;4994938;28;20057;-45
2023/06/09 01:35:46;;;;;;;5.15;2.80;;;;;;;11.98;68.14;100330.59;4994277;28;20407;-49
2023/06/09 01:38:14;;;;;;;7.63;2.22;;;;;;;11.98;69.66;100338.38;4997624;28;20469;-50
2023/06/09 01:40:43;;;;;;;13.10;2.33;;;;;;;11.98;68.90;100335.78;5019908;28;20050;-46
2023/06/09 01:43:10;;;;;;;7.05;2.28;;;;;;;11.96;68.96;100333.19;4994028;28;20610;-50
2023/06/09 01:45:37;;;;;;;7.22;2.53;;;;;;;11.98;69.06;100325.41;5017400;28;20046;-48
2023/06/09 01:48:25;;;;;;;7.18;2.35;;;;;;;11.95;69.72;100334.06;5001502;28;20074;-46
2023/06/09 01:51:06;;;;;;;11.95;3.60;;;;;;;11.95;68.00;100328.88;4990194;28;20415;-51
2023/06/09 01:53:36;;;;;;;10.23;2.17;;;;;;;11.90;69.98;100327.16;4991032;28;20052;-54
2023/06/09 01:56:11;;;;;;;4.93;1.75;;;;;;;11.89;70.24;100321.09;4989373;28;20069;-46
2023/06/09 01:58:48;;;;;;;7.93;2.58;;;;;;;11.91;68.56;100324.56;4993079;28;20049;-45
2023/06/09 02:01:16;;;;;;;;;;;;;;;11.77;70.64;100322.03;4983353;28;20050;-50
2023/06/09 02:03:47;;;;;;;10.43;3.15;;;;;;;11.87;69.16;100327.16;4997050;28;19925;-45
2023/06/09 02:06:18;;;;;;;6.00;2.40;;;;;;;11.88;70.21;100334.09;4984020;28;20529;-50
2023/06/09 02:08:45;;;;;;;6.90;2.17;;;;;;;11.90;69.41;100337.56;4998999;28;20054;-47
2023/06/09 02:11:12;;;;;;;4.20;2.40;;;;;;;11.91;69.83;100334.06;4990061;28;20490;-50
2023/06/09 02:13:39;;;;;;;7.93;2.30;;;;;;;11.92;69.20;100328.03;4993182;28;20048;-52
2023/06/09 02:16:06;;;;;;;9.32;2.55;;;;;;;11.94;69.22;100323.69;4991913;28;20145;-47
2023/06/09 02:18:33;;;;;;;12.35;3.50;;;;;;;11.92;69.20;100323.69;4992857;28;20610;-45
2023/06/09 02:21:00;;;;;;;7.38;2.17;;;;;;;11.93;69.68;100319.38;4996145;28;20074;-44
2023/06/09 02:23:27;;;;;;;9.35;2.28;;;;;;;11.92;70.21;100315.06;4994252;28;20081;-46
2023/06/09 02:25:54;;;;;;;12.00;3.22;;;;;;;11.92;69.42;100310.72;4991216;28;20588;-46
2023/06/09 02:28:21;;;;;;;7.78;1.88;;;;;;;11.91;69.92;100308.13;4994299;28;20046;-50
2023/06/09 02:30:48;;;;;;;8.35;2.85;;;;;;;11.89;70.11;100312.47;4991042;28;20456;-53
2023/06/09 02:33:15;;;;;;;7.70;1.90;;;;;;;11.87;69.48;100306.41;4990876;28;20513;-45
2023/06/09 02:35:42;;;;;;;6.13;2.17;;;;;;;11.89;70.24;100317.66;4978967;28;20502;-50
2023/06/09 02:38:08;;;;;;;9.93;3.63;;;;;;;11.87;70.19;100302.09;4974997;28;20560;-53
2023/06/09 02:40:35;;;;;;;7.18;3.08;;;;;;;11.87;69.34;100302.09;4985346;28;20411;-41
2023/06/09 02:43:02;;;;;;;5.72;2.00;;;;;;;11.80;69.29;100296.06;4975505;28;20061;-51
2023/06/09 02:45:29;;;;;;;7.60;2.60;;;;;;;11.84;69.66;100296.91;4976952;28;20045;-48
2023/06/09 02:47:56;;;;;;;6.03;2.33;;;;;;;11.80;69.52;100296.06;4985091;28;20564;-49
2023/06/09 02:50:23;;;;;;;9.07;2.45;;;;;;;11.80;70.47;100296.06;4982429;28;20043;-46
2023/06/09 02:52:50;;;;;;;8.63;1.90;;;;;;;11.80;70.23;100290.00;4976016;28;20050;-49
2023/06/09 02:55:18;;;;;;;9.07;2.90;;;;;;;11.78;70.63;100299.50;4978006;28;20047;-49
2023/06/09 02:57:45;;;;;;;9.25;2.75;;;;;;;11.75;70.13;100287.41;4982024;28;20553;-48
2023/06/09 03:00:14;;;;;;;7.95;3.28;;;;;;;11.74;70.41;100283.09;4982156;28;20081;-45
2023/06/09 03:02:42;;;;;;;8.55;2.85;;;;;;;11.78;70.61;100276.16;4972492;28;21150;-46
2023/06/09 03:05:10;;;;;;;11.85;2.65;;;;;;;11.78;69.83;100277.03;4983013;28;20051;-54
2023/06/09 03:07:37;;;;;;;9.35;2.58;;;;;;;11.77;70.64;100269.25;4979748;28;20073;-42
2023/06/09 03:10:05;;;;;;;7.95;2.83;;;;;;;11.75;69.31;100271.84;4978167;28;20061;-52
2023/06/09 03:12:32;;;;;;;9.02;2.47;;;;;;;11.73;70.50;100263.22;4978119;28;20050;-51
2023/06/09 03:14:59;;;;;;;10.48;2.88;;;;;;;11.74;69.44;100264.94;4978428;28;20117;-51
2023/06/09 03:17:26;;;;;;;10.32;4.20;;;;;;;11.74;69.85;100264.06;4975585;28;20046;-50
2023/06/09 03:19:53;;;;;;;9.98;2.90;;;;;;;11.75;69.31;100256.28;4979195;28;20059;-45
2023/06/09 03:22:20;;;;;;;5.53;1.95;;;;;;;11.74;69.31;100254.56;4981803;28;20582;-48
2023/06/09 03:24:48;;;;;;;9.73;2.92;;;;;;;11.72;70.56;100243.31;4978143;28;20057;-44
2023/06/09 03:27:16;;;;;;;8.88;3.70;;;;;;;11.73;69.90;100254.56;4981375;28;20926;-48
2023/06/09 03:29:42;;;;;;;6.07;2.78;;;;;;;11.70;70.30;100252.84;4979921;28;20106;-45
2023/06/09 03:32:09;;;;;;;10.82;3.10;;;;;;;11.72;70.51;100255.44;4980066;28;20057;-48
2023/06/09 03:34:36;;;;;;;9.73;2.78;;;;;;;11.68;71.03;100251.97;4977217;28;20129;-44
2023/06/09 03:37:04;;;;;;;7.32;2.80;;;;;;;11.67;70.47;100248.53;4978472;28;20165;-53
2023/06/09 03:39:32;;;;;;;10.77;2.30;;;;;;;11.68;70.94;100255.44;4975358;28;20046;-49
2023/06/09 03:41:59;;;;;;;10.18;2.60;;;;;;;11.70;70.76;100258.03;4981844;28;20150;-51
2023/06/09 03:44:26;;;;;;;5.68;2.55;;;;;;;11.68;70.96;100254.56;4984236;28;20490;-46
2023/06/09 03:46:53;;;;;;;8.55;2.60;;;;;;;11.66;70.38;100256.34;4977432;28;20078;-53
2023/06/09 03:49:20;;;;;;;5.28;1.67;;;;;;;11.65;71.07;100259.81;4977200;28;20105;-49
2023/06/09 03:51:47;;;;;;;7.28;2.00;;;;;;;11.68;69.74;100267.56;4981475;28;20052;-48
2023/06/09 03:54:14;;;;;;;4.82;3.15;;;;;;;11.68;70.35;100260.63;4974447;28;20364;-42
2023/06/09 03:56:42;;;;;;;10.40;2.42;;;;;;;11.67;70.30;100258.06;4975391;28;20659;-45
2023/06/09 03:59:08;;;;;;;9.05;2.80;;;;;;;11.65;71.00;100250.28;4981945;28;20062;-52
2023/06/09 04:01:35;;;;;;;6.28;2.65;;;;;;;11.59;71.53;100259.81;4986776;28;20042;-46
2023/06/09 04:04:02;;;;;;;8.98;2.67;;;;;;;11.62;71.01;100249.44;4972800;28;20047;-48
2023/06/09 04:06:29;;;;;;;7.80;2.85;;;;;;;11.63;70.34;100243.38;4973826;28;20132;-45
2023/06/09 04:08:56;;;;;;;8.55;2.20;;;;;;;11.65;70.68;100245.06;4981389;28;20054;-50
2023/06/09 04:11:22;;;;;;;10.20;2.30;;;;;;;11.64;71.10;100245.09;4980437;28;20049;-48
2023/06/09 04:13:49;;;;;;;6.78;1.95;;;;;;;11.67;70.90;100239.88;5015408;28;20499;-54
2023/06/09 04:16:16;;;;;;;9.73;2.30;;;;;;;11.69;71.32;100243.34;4984513;28;20073;-51
2023/06/09 04:18:43;;;;;;;8.00;2.22;;;;;;;11.70;70.06;100247.66;4981570;28;20062;-47
2023/06/09 04:21:12;;;;;;;6.97;1.80;;;;;;;11.73;71.16;100242.47;4981413;28;20482;-47
2023/06/09 04:23:40;;;;;;;14.25;3.13;;;;;;;11.76;70.90;100241.59;4977605;28;20154;-45
2023/06/09 04:26:08;;;;;;;9.15;3.15;;;;;;;11.77;70.09;100248.50;4987321;28;20100;-50
2023/06/09 04:28:35;;;;;;;7.35;2.45;;;;;;;11.79;69.78;100247.59;4978387;28;20423;-49
2023/06/09 04:31:02;;;;;;;11.32;2.85;;;;;;;11.79;70.61;100255.41;4979134;28;20050;-48
2023/06/09 04:33:29;;;;;;;7.95;2.25;;;;;;;11.81;69.79;100256.25;4979442;28;20043;-45
2023/06/09 04:35:55;;;;;;;7.78;2.63;;;;;;;11.81;69.66;100245.88;4954485;28;20074;-49
2023/06/09 04:38:23;;;;;;;8.02;2.28;;;;;;;11.79;70.76;100250.22;4982993;28;20061;-55
2023/06/09 04:40:50;;;;;;;10.93;2.58;;;;;;;11.81;69.67;100251.06;4979367;28;20101;-50
2023/06/09 04:43:18;;;;;;;6.00;2.35;;;;;;;11.83;70.42;100264.88;4981495;28;20100;-51
2023/06/09 04:45:47;;;;;;;7.60;2.95;;;;;;;11.87;69.66;100260.56;4975186;28;20051;-54
2023/06/09 04:48:14;;;;;;;12.50;3.17;;;;;;;11.88;69.70;100271.78;4983212;28;20145;-41
2023/06/09 04:50:44;;;;;;;7.28;2.28;;;;;;;11.87;70.39;100270.94;4977867;28;20124;-53
2023/06/09 04:53:12;;;;;;;10.95;3.33;;;;;;;11.93;70.72;100270.06;4980929;28;20046;-45
2023/06/09 04:55:40;;;;;;;10.05;3.28;;;;;;;11.96;70.74;100272.66;4984628;28;20061;-46
2023/06/09 04:58:07;;;;;;;10.45;2.95;;;;;;;11.90;70.48;100275.25;4976241;28;20124;-48
2023/06/09 05:00:35;;;;;;;10.32;2.97;;;;;;;11.96;70.77;100270.88;4977968;28;20062;-44
2023/06/09 05:03:02;;;;;;;6.30;2.10;;;;;;;11.97;69.95;100271.75;4981395;28;20082;-47
2023/06/09 05:05:29;;;;;;;7.93;3.15;;;;;;;12.00;69.70;100281.28;4984341;28;20156;-53
2023/06/09 05:07:56;;;;;;;10.63;2.65;;;;;;;11.99;69.97;100279.56;4981195;28;20046;-50
2023/06/09 05:10:23;;;;;;;8.68;3.83;;;;;;;12.03;69.69;100278.66;4977929;28;20635;-48
2023/06/09 05:12:50;;;;;;;12.48;3.10;;;;;;;12.07;69.80;100283.88;4990868;28;20090;-50
2023/06/09 05:15:17;;;;;;;7.50;2.70;;;;;;;12.13;69.75;100282.09;4982199;28;20488;-49
2023/06/09 05:17:44;;;;;;;7.85;2.65;;;;;;;12.11;70.27;100294.22;4974764;28;20117;-52
2023/06/09 05:20:11;;;;;;;7.97;2.08;;;;;;;12.11;69.91;100297.69;4981267;28;20096;-51
2023/06/09 05:22:38;;;;;;;6.90;2.58;;;;;;;12.15;70.21;100293.31;4978830;28;20054;-46
2023/06/09 05:25:08;;;;;;;8.20;2.70;;;;;;;12.22;69.11;100292.44;4974902;28;20054;-49
2023/06/09 05:27:36;;;;;;;8.35;2.80;;;;;;;12.24;69.06;100305.41;4977334;28;20454;-48
2023/06/09 05:30:03;;;;;;;4.95;2.17;;;;;;;12.25;69.96;100297.59;4977242;28;20525;-53
2023/06/09 05:32:31;;;;;;;12.65;2.80;;;;;;;12.28;69.60;100297.59;4981566;28;20053;-50
2023/06/09 05:34:58;;;;;;;9.85;2.95;;;;;;;12.20;70.26;100291.59;4981054;28;20107;-46
2023/06/09 05:37:25;;;;;;;11.32;3.05;;;;;;;12.28;68.93;100297.59;4975231;28;20069;-51
2023/06/09 05:39:52;;;;;;;9.50;3.05;;;;;;;12.31;68.87;100292.38;4985350;28;20056;-48
2023/06/09 05:42:19;;;;;;;9.10;2.35;;;;;;;12.37;69.33;100295.81;4977476;28;20054;-48
2023/06/09 05:44:46;;;;;;;10.60;3.40;;;;;;;12.42;69.20;100297.50;4978616;28;20050;-43
2023/06/09 05:47:13;;;;;;;8.10;2.83;;;;;;;12.51;68.61;100294.00;4981068;28;20057;-51
2023/06/09 05:49:40;;;;;;;10.98;2.67;;;;;;;12.56;69.70;100297.41;4975355;28;20058;-53
2023/06/09 05:52:07;;;;;;;9.82;2.78;;;;;;;12.58;69.52;100295.69;4976814;28;20681;-49
2023/06/09 05:54:34;;;;;;;10.40;3.22;;;;;;;12.62;69.01;100296.50;4983222;28;20168;-48
2023/06/09 05:57:04;;;;;;;16.85;4.38;;;;;;;12.60;68.88;100293.91;4979414;28;20046;-46
2023/06/09 05:59:32;;;;;;;8.20;3.90;;;;;;;12.59;68.98;100302.59;4978267;28;20423;-48
2023/06/09 06:02:00;;;;;;;8.02;2.42;;;;;;;12.62;68.15;100295.63;4981873;28;20078;-47
2023/06/09 06:04:27;;;;;;;10.52;3.30;;;;;;;12.64;68.22;100291.31;4980665;28;20046;-46
2023/06/09 06:06:55;;;;;;;7.70;2.25;;;;;;;12.65;68.34;100308.59;4978607;28;20057;-48
2023/06/09 06:09:22;;;;;;;9.38;2.25;;;;;;;12.68;68.71;100298.19;4976069;28;20046;-47
2023/06/09 06:11:49;;;;;;;6.10;2.58;;;;;;;12.76;67.96;100303.34;4985498;28;20046;-47
2023/06/09 06:14:16;;;;;;;6.63;2.65;;;;;;;12.79;68.22;100298.97;4988749;28;20127;-46
2023/06/09 06:16:43;;;;;;;9.38;2.70;;;;;;;12.84;67.73;100302.41;4984385;28;20076;-53
2023/06/09 06:19:11;;;;;;;6.72;2.88;;;;;;;12.92;68.04;100298.88;4980024;28;20050;-49
2023/06/09 06:21:42;;;;;;;9.90;2.90;;;;;;;12.99;68.41;100300.56;4976453;28;20051;-47
2023/06/09 06:24:09;;;;;;;10.88;3.03;;;;;;;13.06;68.52;100294.41;4979501;28;20147;-48
2023/06/09 06:26:36;;;;;;;9.30;3.05;;;;;;;13.17;67.96;100296.91;4979880;28;20058;-51
2023/06/09 06:29:03;;;;;;;7.65;3.58;;;;;;;13.15;67.27;100287.41;4981806;28;20055;-49
2023/06/09 06:31:31;;;;;;;11.25;2.53;;;;;;;13.24;67.77;100295.09;4980731;28;20057;-47
2023/06/09 06:33:58;;;;;;;8.25;2.75;;;;;;;13.29;67.25;100277.75;4980849;28;20058;-47
2023/06/09 06:36:26;;;;;;;9.55;3.05;;;;;;;13.45;67.56;100274.97;4980170;28;20058;-45
2023/06/09 06:38:53;;;;;;;5.35;1.90;;;;;;;13.51;67.10;100279.28;4976799;28;20051;-47
2023/06/09 06:41:20;;;;;;;11.05;3.00;;;;;;;13.66;67.72;100286.03;4971559;28;20042;-49
2023/06/09 06:43:49;;;;;;;6.93;2.80;;;;;;;13.77;67.24;100268.56;4977075;28;20046;-52
2023/06/09 06:46:17;;;;;;;12.18;2.50;;;;;;;13.81;66.17;100259.81;4978181;28;20057;-52
2023/06/09 06:48:44;;;;;;;8.75;3.28;;;;;;;13.95;65.94;100271.81;4983613;28;20587;-46
2023/06/09 06:51:11;;;;;;;6.82;2.83;;;;;;;14.06;66.13;100264.72;4982323;28;20070;-49
2023/06/09 06:53:38;;;;;;;8.32;2.45;;;;;;;14.23;66.26;100268.81;4973398;28;20061;-44
2023/06/09 06:56:05;;;;;;;3.92;2.05;;;;;;;14.27;65.72;100270.50;4977787;28;20038;-46
2023/06/09 06:58:32;;;;;;;7.60;2.80;;;;;;;14.33;64.64;100273.03;4973438;28;20096;-52
2023/06/09 07:01:00;;;;;;;9.80;2.45;;;;;;;14.39;65.07;100266.88;4980090;28;20057;-44
2023/06/09 07:03:27;;;;;;;9.52;2.80;;;;;;;14.42;64.30;100281.59;4973933;28;20121;-46
2023/06/09 07:05:54;;;;;;;10.90;2.88;;;;;;;14.51;64.25;100281.44;4979092;28;20038;-45
2023/06/09 07:08:21;;;;;;;8.43;3.42;;;;;;;14.61;64.73;100272.59;4983868;28;20453;-52
2023/06/09 07:10:48;;;;;;;6.88;2.45;;;;;;;14.77;64.57;100277.59;4981035;28;20046;-48
2023/06/09 07:13:16;;;;;;;11.32;3.10;;;;;;;14.90;64.38;100279.09;4980149;28;20038;-51
2023/06/09 07:15:42;;;;;;;9.85;2.83;;;;;;;14.92;63.63;100280.84;4979080;28;20046;-53
2023/06/09 07:18:11;;;;;;;8.18;3.05;;;;;;;14.92;63.10;100286.06;4972977;28;20050;-54
2023/06/09 07:20:37;;;;;;;12.88;3.88;;;;;;;15.04;63.71;100276.25;4979836;28;20465;-49
2023/06/09 07:23:04;;;;;;;7.30;2.83;;;;;;;15.28;63.78;100273.22;4981741;28;20561;-52
2023/06/09 07:25:31;;;;;;;7.85;2.50;;;;;;;15.56;62.73;100270.06;4982065;28;20495;-48
2023/06/09 07:27:58;;;;;;;7.53;2.80;;;;;;;15.78;62.15;100267.03;4983769;28;20049;-49
2023/06/09 07:30:25;;;;;;;6.50;2.75;;;;;;;15.89;62.11;100267.69;4982481;28;20042;-44
2023/06/09 07:32:52;;;;;;;5.15;2.13;;;;;;;16.10;62.48;100273.34;4974244;28;20058;-46
2023/06/09 07:35:19;;;;;;;12.23;2.75;;;;;;;16.24;61.83;100274.81;4982659;28;20045;-44
2023/06/09 07:37:48;;;;;;;9.55;2.95;;;;;;;16.44;60.85;100277.81;4983395;28;20050;-50
2023/06/09 07:40:15;;;;;;;6.43;2.80;;;;;;;16.64;60.31;100284.31;4979212;28;20550;-52
2023/06/09 07:42:48;;;;;;;5.70;2.00;;;;;;;16.87;60.97;100284.63;5015908;28;20145;-52
2023/06/09 07:45:15;;;;;;;7.97;3.08;;;;;;;17.02;59.87;100288.63;4977291;28;20134;-53
2023/06/09 07:47:42;;;;;;;9.57;3.45;;;;;;;17.12;59.91;100290.13;4978135;28;20073;-53
2023/06/09 07:50:09;;;;;;;7.30;3.20;;;;;;;17.19;58.41;100291.69;4979133;28;20053;-52
2023/06/09 07:52:37;;;;;;;5.93;2.40;;;;;;;17.30;58.36;100293.16;4982253;28;20047;-47
2023/06/09 07:55:05;;;;;;;7.93;3.40;;;;;;;17.45;58.45;100287.50;4977417;28;20507;-45
2023/06/09 07:57:37;;;;;;;6.93;3.15;;;;;;;17.67;58.27;100292.13;4979398;28;20058;-46
2023/06/09 08:00:06;;;;;;;6.13;2.53;;;;;;;17.93;58.59;100284.44;4989763;28;20050;-43
2023/06/09 08:02:33;;;;;;;7.28;2.45;;;;;;;18.09;57.66;100277.00;4977883;28;20054;-41
2023/06/09 08:05:01;;;;;;;9.65;3.00;;;;;;;18.10;56.54;100279.56;4971779;28;20053;-50
2023/06/09 08:07:28;;;;;;;7.70;3.42;;;;;;;18.08;56.21;100283.09;4981673;28;20632;-50
2023/06/09 08:09:55;;;;;;;7.82;2.85;;;;;;;18.19;56.40;100294.16;4973206;28;20057;-51
2023/06/09 08:12:22;;;;;;;9.73;2.90;;;;;;;18.33;55.96;100304.22;4977767;28;20108;-50
2023/06/09 08:14:49;;;;;;;4.63;2.10;;;;;;;18.48;56.39;100289.75;4984550;28;20038;-50
2023/06/09 08:17:15;;;;;;;10.30;3.50;;;;;;;18.66;56.07;100303.19;4983502;28;20065;-50
2023/06/09 08:19:42;;;;;;;8.80;2.90;;;;;;;18.74;55.66;100295.91;4984191;28;20062;-47
2023/06/09 08:22:09;;;;;;;8.40;2.75;;;;;;;18.68;54.61;100285.63;4979092;28;20062;-43
2023/06/09 08:24:36;;;;;;;6.25;2.90;;;;;;;18.72;55.43;100292.50;4972123;28;20046;-55
2023/06/09 08:27:07;;;;;;;7.78;3.03;;;;;;;18.70;55.27;100277.69;4981573;28;20051;-46
2023/06/09 08:29:36;;;;;;;10.07;4.13;;;;;;;18.65;55.05;100275.25;4992314;28;20418;-52
2023/06/09 08:32:03;;;;;;;8.30;2.92;;;;;;;18.70;54.09;100283.81;4981057;28;20058;-47
2023/06/09 08:34:30;;;;;;;6.20;2.60;;;;;;;18.73;54.04;100283.72;4981309;28;20056;-53
2023/06/09 08:36:57;;;;;;;10.90;3.30;;;;;;;18.96;54.70;100284.72;4973737;28;20088;-49
2023/06/09 08:39:24;;;;;;;7.50;3.47;;;;;;;19.18;54.07;100273.50;4979930;28;20381;-49
2023/06/09 08:41:55;;;;;;;7.40;2.53;;;;;;;19.29;53.86;100269.63;4992880;28;20442;-47
2023/06/09 08:44:25;;;;;;;5.70;2.45;;;;;;;19.44;53.60;100263.84;4977131;28;20050;-50
2023/06/09 08:46:53;;;;;;;10.00;3.35;;;;;;;19.42;52.61;100265.63;4976297;28;20054;-49
2023/06/09 08:49:20;;;;;;;13.55;2.95;;;;;;;19.34;52.49;100270.31;4976324;28;20495;-55
2023/06/09 08:51:47;;;;;;;12.27;3.47;;;;;;;19.28;52.82;100253.00;4978353;28;20107;-53
2023/06/09 08:54:17;;;;;;;8.35;2.95;;;;;;;19.36;52.68;100250.13;4976668;28;20046;-48
2023/06/09 08:56:47;;;;;;;8.02;2.75;;;;;;;19.42;52.57;100252.50;4978487;28;20219;-52
2023/06/09 08:59:16;;;;;;;8.43;3.13;;;;;;;19.51;52.62;100249.56;4978155;28;20490;-53
2023/06/09 09:01:44;;;;;;;6.60;2.33;;;;;;;19.57;52.49;100255.50;4971556;28;20046;-57
2023/06/09 09:04:12;;;;;;;7.35;2.40;;;;;;;19.56;52.01;100261.66;4982624;28;20057;-53
2023/06/09 09:06:39;;;;;;;7.82;2.80;;;;;;;19.71;52.67;100247.97;4978091;28;20054;-50
2023/06/09 09:09:06;;;;;;;8.23;2.83;;;;;;;19.87;51.99;100255.25;4982228;28;20046;-52
2023/06/09 09:11:33;;;;;;;10.10;2.88;;;;;;;20.02;52.45;100257.31;4980259;28;20058;-56
2023/06/09 09:14:16;;;;;;;6.85;3.67;;;;;;;20.10;51.62;100256.16;4974475;28;20042;-53
2023/06/09 09:16:42;;;;;;;10.77;2.90;;;;;;;20.20;51.01;100259.28;4975705;28;20497;-52
2023/06/09 09:19:09;;;;;;;6.43;3.00;;;;;;;20.22;50.86;100255.69;4981355;28;20042;-58
2023/06/09 09:21:37;;;;;;;6.55;2.35;;;;;;;20.38;51.18;100255.06;4981171;28;20050;-51
2023/06/09 09:24:06;;;;;;;8.40;4.30;;;;;;;20.50;51.20;100244.03;4980484;28;20406;-54
2023/06/09 09:26:33;;;;;;;6.13;2.92;;;;;;;20.65;50.88;100247.81;4976621;28;20050;-51
2023/06/09 09:29:06;;;;;;;5.32;2.83;;;;;;;20.71;50.43;100251.09;4981637;28;20062;-49
2023/06/09 09:31:36;;;;;;;5.35;2.42;;;;;;;20.71;49.98;100251.97;4974833;28;20046;-55
2023/06/09 09:34:03;;;;;;;8.75;2.72;;;;;;;20.72;50.24;100243.16;4977077;28;20480;-54
2023/06/09 09:36:33;;;;;;;5.78;2.80;;;;;;;20.78;50.73;100242.88;4978410;28;20046;-54
2023/06/09 09:39:05;;;;;;;7.70;3.15;;;;;;;20.86;49.74;100249.59;4982419;28;20136;-54
2023/06/09 09:41:32;;;;;;;8.63;4.15;;;;;;;20.93;50.63;100240.53;4980373;28;20413;-56
2023/06/09 09:43:59;;;;;;;6.68;3.08;;;;;;;20.84;50.07;100240.91;4981412;28;20120;-52
2023/06/09 09:46:26;;;;;;;7.82;4.47;;;;;;;20.75;49.36;100232.50;4969616;28;20575;-51
2023/06/09 09:48:54;;;;;;;6.97;2.78;;;;;;;20.87;51.03;100232.88;4984902;28;20076;-55
2023/06/09 09:51:21;;;;;;;7.03;2.80;;;;;;;20.95;49.99;100241.34;4985263;28;20053;-52
2023/06/09 09:53:50;;;;;;;8.07;3.10;;;;;;;21.18;50.57;100244.75;4992168;28;20054;-47
2023/06/09 09:56:21;;;;;;;8.10;2.88;;;;;;;21.40;49.86;100235.88;4982657;28;20038;-55
2023/06/09 09:58:52;;;;;;;7.57;3.10;;;;;;;21.43;49.52;100222.56;4988729;28;20049;-51
2023/06/09 10:01:24;;;;;;;13.85;3.80;;;;;;;21.54;49.34;100235.25;4974052;28;20495;-49
2023/06/09 10:03:54;;;;;;;10.45;3.78;;;;;;;21.75;50.03;100233.41;4981986;28;20457;-52
2023/06/09 10:06:27;;;;;;;11.05;2.97;;;;;;;21.86;49.19;100229.44;4978967;28;20100;-53
2023/06/09 10:08:57;;;;;;;8.50;3.33;;;;;;;21.86;47.77;100224.16;4987070;28;20050;-52
2023/06/09 10:11:31;;;;;;;9.00;3.35;;;;;;;21.82;47.69;100216.41;4982641;28;20108;-55
2023/06/09 10:14:00;;;;;;;9.10;3.67;;;;;;;21.66;48.62;100218.00;4976344;28;20191;-46
2023/06/09 10:16:28;;;;;;;7.70;3.05;;;;;;;21.69;49.06;100212.59;4983385;28;20058;-55
2023/06/09 10:18:56;;;;;;;10.52;3.67;;;;;;;21.72;48.58;100208.97;4980244;28;20055;-52
2023/06/09 10:21:25;;;;;;;7.57;3.58;;;;;;;21.79;48.17;100213.06;4975732;28;20050;-49
2023/06/09 10:23:52;;;;;;;8.20;2.78;;;;;;;21.80;48.40;100209.50;4985090;28;20050;-57
2023/06/09 10:26:20;;;;;;;9.95;4.07;;;;;;;21.81;48.96;100213.81;4985112;28;20097;-51
2023/06/09 10:28:47;;;;;;;7.53;2.67;;;;;;;21.73;48.55;100214.16;4977605;28;20053;-54
2023/06/09 10:31:17;;;;;;;11.93;3.28;;;;;;;21.72;49.03;100207.19;4978909;28;20548;-50
2023/06/09 10:33:45;;;;;;;11.85;3.15;;;;;;;21.77;48.13;100199.09;4977060;28;20634;-52
2023/06/09 10:36:12;;;;;;;7.20;3.22;;;;;;;21.91;48.56;100198.41;4980649;28;20050;-50
2023/06/09 10:41:33;;;;;;;8.65;4.93;;;;;;;22.02;47.54;100195.28;5059784;27;20777;-51
2023/06/09 10:44:39;;;;;;;11.32;4.97;;;;;;;22.05;48.55;100198.63;5055441;28;20453;-54
2023/06/09 10:47:06;;;;;;;12.27;5.75;;;;;;;22.33;48.66;100197.25;5074109;28;20075;-51
2023/06/09 10:49:36;;;;;;;10.18;4.95;;;;;;;22.45;48.54;100189.66;5066894;28;20052;-50
2023/06/09 10:52:05;;;;;;;7.78;4.57;;;;;;;22.46;47.73;100201.94;5078392;28;20036;-49
2023/06/09 10:54:35;;;;;;;9.43;4.90;;;;;;;22.54;48.24;100193.63;5102398;27;20737;-56
2023/06/09 10:57:06;;;;;;;7.82;4.65;;;;;;;22.57;47.43;100193.50;5096353;28;20052;-55
2023/06/09 11:04:49;;;;;;;8.93;3.15;;;;;;;22.67;47.34;100199.16;5080567;27;20898;-52
2023/06/09 11:07:18;;;;;;;9.85;3.72;;;;;;;22.83;47.88;100202.72;5060993;28;20451;-51
2023/06/09 11:15:16;;;;;;;8.20;3.40;;;;;;;22.93;46.88;100191.69;5098566;27;20388;-55
2023/06/09 11:17:45;;;;;;;8.63;3.35;;;;;;;23.03;46.79;100194.69;5102537;28;20040;-51
2023/06/09 11:20:15;;;;;;;6.47;3.28;;;;;;;23.04;47.37;100181.41;5084349;28;20050;-49
2023/06/09 11:30:33;;;;;;;9.68;3.67;;;;;;;23.39;47.38;100184.88;5047976;28;20395;-55
2023/06/09 11:33:01;;;;;;;12.98;3.83;;;;;;;23.43;46.68;100175.84;5016200;28;20045;-59
2023/06/09 11:38:08;;;;;;;12.80;4.30;;;;;;;23.29;46.52;100177.44;5062403;27;20477;-56
2023/06/09 11:40:37;;;;;;;10.63;5.65;;;;;;;23.24;47.16;100175.03;5014956;28;20568;-56
2023/06/09 11:43:07;;;;;;;7.55;3.90;;;;;;;23.23;47.00;100181.25;5012179;28;20805;-56
2023/06/09 11:45:35;;;;;;;9.05;3.97;;;;;;;23.24;46.90;100168.91;5014145;28;20502;-54
2023/06/09 11:48:05;;;;;;;6.55;3.60;;;;;;;23.35;46.77;100179.78;5019439;28;20456;-55
2023/06/09 11:56:00;;;;;;;8.48;4.30;;;;;;;23.34;46.45;100162.16;5026842;27;20402;-56
2023/06/09 11:58:27;;;;;;;8.13;3.80;;;;;;;23.38;46.90;100162.03;5013296;28;20037;-55
2023/06/09 12:00:54;;;;;;;6.53;2.97;;;;;;;23.39;46.69;100158.44;5027034;28;20060;-57
2023/06/09 12:03:21;;;;;;;11.00;3.95;;;;;;;23.40;46.75;100160.19;5021662;28;20519;-56
2023/06/09 12:05:49;;;;;;;5.80;2.97;;;;;;;23.46;46.67;100162.47;5023391;28;20053;-56
2023/06/09 12:08:16;;;;;;;8.15;3.53;;;;;;;23.51;47.51;100157.81;5021007;28;20057;-58